Terminal Aerodrome Forecast
Issued by NWS North Platte, NE

Home | Current Version | Previous Version | Graphics & Text | Print | Product List | Glossary On
Versions: 1 2 3 4 5 6 7 8 9 10 11 12 13 14 15 16
000
FTUS43 KLBF 301735
TAFVTN
TAF
KVTN 301735Z 3018/3118 19010KT P6SM SCT200
     FM302200 23013KT P6SM VCTS BKN100CB
      TEMPO 3023/3102 VRB20G40KT 3SM +TSRA BKN035CB
     FM310500 34006KT P6SM BKN100
     FM311300 29010KT P6SM BKN070=

USA.gov is the U.S. government's official web portal to all federal, state and local government web resources and services.